Rejestracja

Wszystkie dane podawane są w czasie UTC za wyjątkiem miejsc gdzie jest jednoznacznie podane, że jest inaczej. Dane podawane w serwisie mają charakter informacyjny!!!
Informacje w sprawie dostępu do serwisu pod numerem tel. +48 261-828-138

Aktualna Pogoda
 
Pogoda w Polsce
-3°C Szczecin -2°C Suwałki 2°C Warszawa -2°C Poznan
2°C Opole 1°C Kraków 3°C Rzeszów
Więcej miast w Polsce

Pogoda w Europie
-2°C Berlin 3°C Paryz -2°C Bruksela -4°C Oslo
0°C Praga 3°C Zagrzeb
Więcej miast w Europie

Metary wojskowe test
METAR EPCE 130200Z 14004KT 100V190 1500 BR OVC002 M01/M01 Q1001 RMK M006 100 8/8=
METAR EPDA 130200Z 13005KT 6000 BKN054 M02/M02 Q1001 RMK M016 099 5/5=
METAR EPDE 130200Z 10004KT 9999 BKN040 BKN050 01/M01 Q1002 RMK 007 090 7/5=
METAR EPIR 130200Z 10006KT 3000 BR SCT045 M02/M02 Q1001 RMK M019 099 3/3=
METAR EPKS 130200Z 10004KT 3000 BR NSC M03/M04 Q1000 RMK M035 093 0/0=
METAR EPLK 130200Z 11006KT 8000 NSC 01/01 Q1000 RMK 010 098 6/6=
METAR EPLY 130200Z 12004KT 9999 BKN040 M00/M01 Q1001 RMK M004 096 5/5=
METAR EPMB 130200Z 19002KT 2500 BR NSC M01/M03 Q1002 RMK M015 092 0/0=
METAR EPMI 130200Z 10002KT 0500 FZFG NSC M02/M03 Q1000 RMK M024 097 0/0=
METAR EPMM 130200Z 12004KT 9999 BKN017 BKN070 01/01 Q1003 RMK 014 094 7/5=
METAR EPOK 130200Z 20004KT 7000 SCT063 01/M00 Q1001 RMK 005 093 4/4=
METAR EPPR 130200Z AUTO 00000KT // ///008 ///028 M01/M02 Q1002 RMK M015 099 ///=
METAR EPPW 130200Z 09004KT 2000 BR NSC M01/M01 Q1000 RMK M008 096 0/0=
METAR EPSN 130200Z 00000KT 2500 BR NSC M02/M02 Q1000 RMK M018 095 0/0=
METAR EPTM 130200Z AUTO 14004KT ///025 00/M00 Q1001 RMK 002 096=


 
Informacje ogólne
Pogoda
Warszawa
Temperatura: 1.8°C
Wiatr: 2.0 m/s
Ciśnienie: 1003.5 hPa
Zjawiska: Brak
Temp. max: 1.9 °C
Temp. min: 1.7 °C


Dane astronomiczne
Warszawa:
Dzien: 09:49 h
Noc: 14:11 h


Using HW VSP powered by HW group.

Prawa autorskie©2007 SSH SZ RP. Wszelkie prawa zastrzeżone.